createdAt,value
2023-01-31T00:00:53.022Z,1.77
2023-01-31T00:03:21.639Z,1.73
2023-01-31T00:05:50.140Z,1.75
2023-01-31T00:08:18.640Z,1.90
2023-01-31T00:10:47.061Z,1.70
2023-01-31T00:13:15.492Z,2.08
2023-01-31T00:15:43.918Z,1.90
2023-01-31T00:18:13.759Z,1.70
2023-01-31T00:20:42.603Z,2.08
2023-01-31T00:23:11.421Z,1.77
2023-01-31T00:25:39.859Z,1.80
2023-01-31T00:28:08.395Z,1.52
2023-01-31T00:30:37.159Z,2.05
2023-01-31T00:33:06.035Z,1.77
2023-01-31T00:35:39.899Z,1.70
2023-01-31T00:38:08.390Z,1.77
2023-01-31T00:40:37.283Z,2.03
2023-01-31T00:43:05.704Z,1.77
2023-01-31T00:45:34.573Z,2.10
2023-01-31T00:48:03.293Z,1.55
2023-01-31T00:50:31.732Z,1.70
2023-01-31T00:53:02.107Z,1.80
2023-01-31T00:55:30.576Z,1.98
2023-01-31T00:57:58.926Z,1.73
2023-01-31T01:00:27.315Z,1.63
2023-01-31T01:02:55.887Z,1.80
2023-01-31T01:05:24.800Z,1.60
2023-01-31T01:07:54.533Z,1.80
2023-01-31T01:10:24.318Z,1.58
2023-01-31T01:12:52.667Z,1.50
2023-01-31T01:15:21.524Z,1.73
2023-01-31T01:17:50.846Z,1.42
2023-01-31T01:20:21.325Z,1.80
2023-01-31T01:22:49.756Z,1.60
2023-01-31T01:25:18.612Z,1.73
2023-01-31T01:27:48.520Z,1.70
2023-01-31T01:30:17.569Z,1.60
2023-01-31T01:32:46.599Z,1.45
2023-01-31T01:35:16.602Z,2.00
2023-01-31T01:37:44.998Z,1.67
2023-01-31T01:40:13.834Z,1.70
2023-01-31T01:42:42.191Z,1.45
2023-01-31T01:45:17.475Z,1.33
2023-01-31T01:47:50.558Z,1.73
2023-01-31T01:50:24.680Z,1.33
2023-01-31T01:55:28.103Z,1.60
2023-01-31T01:58:03.765Z,1.80
2023-01-31T02:00:36.552Z,1.50
2023-01-31T02:03:07.641Z,1.30
2023-01-31T02:05:39.555Z,1.60
2023-01-31T02:08:07.932Z,1.52
2023-01-31T02:10:43.402Z,1.63
2023-01-31T02:13:13.038Z,1.50
2023-01-31T02:15:42.766Z,1.48
2023-01-31T02:18:11.693Z,1.63
2023-01-31T02:21:12.626Z,1.40
2023-01-31T02:24:18.118Z,1.60
2023-01-31T02:27:08.767Z,1.33
2023-01-31T02:30:03.128Z,1.45
2023-01-31T02:32:54.078Z,1.50
2023-01-31T02:35:33.920Z,1.50
2023-01-31T02:38:13.866Z,1.30
2023-01-31T02:40:50.480Z,1.23
2023-01-31T02:43:24.083Z,1.70
2023-01-31T02:45:58.530Z,1.50
2023-01-31T02:48:36.764Z,1.45
2023-01-31T02:51:11.310Z,1.58
2023-01-31T02:53:45.494Z,1.20
2023-01-31T02:56:19.258Z,1.45
2023-01-31T02:58:54.873Z,1.30
2023-01-31T03:01:29.072Z,1.50
2023-01-31T03:04:00.974Z,1.50
2023-01-31T03:07:00.017Z,1.50
2023-01-31T03:09:37.378Z,1.50
2023-01-31T03:12:22.935Z,1.50
2023-01-31T03:15:05.022Z,1.35
2023-01-31T03:17:42.196Z,1.58
2023-01-31T03:20:17.203Z,1.52
2023-01-31T03:22:49.513Z,1.58
2023-01-31T03:25:21.761Z,1.80
2023-01-31T03:27:56.122Z,1.70
2023-01-31T03:33:04.979Z,1.60
2023-01-31T03:35:39.401Z,1.65
2023-01-31T03:40:47.974Z,1.55
2023-01-31T03:43:26.440Z,1.60
2023-01-31T03:46:00.620Z,1.40
2023-01-31T03:48:32.972Z,1.58
2023-01-31T03:51:06.217Z,1.30
2023-01-31T03:53:42.328Z,1.45
2023-01-31T03:56:17.478Z,1.60
2023-01-31T03:58:53.722Z,1.48
2023-01-31T04:01:27.037Z,1.40
2023-01-31T04:03:59.601Z,1.30
2023-01-31T04:06:29.891Z,1.45
2023-01-31T04:08:59.445Z,1.40
2023-01-31T04:11:29.485Z,1.50
2023-01-31T04:13:57.956Z,1.38
2023-01-31T04:16:26.471Z,1.73
2023-01-31T04:18:56.494Z,1.55
2023-01-31T04:21:25.091Z,1.30
2023-01-31T04:23:54.966Z,1.50
2023-01-31T04:26:23.433Z,1.48
2023-01-31T04:28:53.149Z,1.50
2023-01-31T04:31:21.754Z,1.35
2023-01-31T04:33:50.276Z,1.30
2023-01-31T04:36:18.852Z,1.30
2023-01-31T04:38:47.338Z,1.30
2023-01-31T04:41:17.226Z,1.58
2023-01-31T04:43:45.630Z,1.20
2023-01-31T04:46:15.631Z,1.65
2023-01-31T04:48:44.146Z,1.48
2023-01-31T04:51:12.617Z,1.33
2023-01-31T04:53:41.042Z,1.33
2023-01-31T04:56:09.555Z,1.40
2023-01-31T04:58:41.433Z,1.35
2023-01-31T05:01:10.182Z,1.40
2023-01-31T05:03:38.793Z,1.45
2023-01-31T05:06:08.566Z,1.40
2023-01-31T05:08:37.053Z,1.50
2023-01-31T05:11:07.548Z,1.23
2023-01-31T05:13:38.172Z,1.42
2023-01-31T05:16:11.148Z,1.60
2023-01-31T05:18:40.187Z,1.33
2023-01-31T05:21:09.283Z,1.50
2023-01-31T05:23:37.827Z,1.60
2023-01-31T05:26:06.970Z,1.50
2023-01-31T05:28:36.221Z,1.48
2023-01-31T05:31:07.901Z,1.50
2023-01-31T05:33:37.926Z,1.38
2023-01-31T05:36:06.885Z,1.42
2023-01-31T05:38:35.360Z,1.48
2023-01-31T05:41:03.824Z,1.50
2023-01-31T05:43:32.492Z,1.70
2023-01-31T05:46:01.452Z,1.42
2023-01-31T05:48:30.014Z,1.77
2023-01-31T05:50:59.780Z,1.30
2023-01-31T05:53:28.240Z,1.40
2023-01-31T05:55:56.899Z,1.75
2023-01-31T05:58:25.361Z,1.40
2023-01-31T06:00:56.508Z,1.70
2023-01-31T06:03:24.968Z,1.52
2023-01-31T06:05:54.191Z,1.80
2023-01-31T06:08:23.984Z,1.67
2023-01-31T06:10:52.470Z,1.33
2023-01-31T06:13:20.943Z,1.60
2023-01-31T06:15:50.884Z,1.50
2023-01-31T06:18:19.370Z,1.77
2023-01-31T06:20:47.885Z,1.42
2023-01-31T06:23:16.536Z,1.38
2023-01-31T06:25:46.351Z,1.48
2023-01-31T06:28:14.868Z,2.03
2023-01-31T06:30:43.456Z,1.50
2023-01-31T06:33:12.728Z,1.52
2023-01-31T06:35:41.303Z,1.58
2023-01-31T06:38:12.436Z,1.73
2023-01-31T06:40:40.838Z,1.52
2023-01-31T06:43:10.605Z,1.40
2023-01-31T06:45:39.141Z,1.48
2023-01-31T06:48:07.870Z,1.85
2023-01-31T06:50:36.341Z,1.33
2023-01-31T06:53:05.297Z,1.52
2023-01-31T06:55:33.779Z,1.60
2023-01-31T06:58:02.403Z,1.60
2023-01-31T07:00:32.867Z,1.45
2023-01-31T07:03:01.375Z,1.30
2023-01-31T07:05:30.476Z,1.30
2023-01-31T07:07:59.037Z,1.10
2023-01-31T07:10:27.602Z,1.00
2023-01-31T07:12:56.046Z,1.15
2023-01-31T07:15:24.540Z,0.90
2023-01-31T07:17:58.762Z,0.85
2023-01-31T07:20:27.366Z,0.90
2023-01-31T07:22:57.034Z,0.80
2023-01-31T07:25:25.749Z,1.02
2023-01-31T07:27:54.241Z,0.77
2023-01-31T07:30:23.203Z,0.57
2023-01-31T07:32:51.644Z,0.90
2023-01-31T07:35:21.992Z,0.68
2023-01-31T07:37:53.426Z,0.73
2023-01-31T07:40:22.186Z,0.75
2023-01-31T07:42:50.709Z,0.80
2023-01-31T07:45:23.821Z,0.70
2023-01-31T07:47:52.612Z,0.85
2023-01-31T07:50:22.526Z,0.73
2023-01-31T07:52:51.350Z,0.80
2023-01-31T07:55:20.148Z,0.82
2023-01-31T07:57:48.801Z,0.90
2023-01-31T08:00:35.437Z,1.00
2023-01-31T08:03:21.769Z,0.90
2023-01-31T08:08:19.836Z,0.82
2023-01-31T08:10:48.237Z,0.80
2023-01-31T08:13:16.646Z,0.90
2023-01-31T08:15:45.381Z,1.00
2023-01-31T08:18:13.855Z,1.00
2023-01-31T08:20:42.298Z,0.73
2023-01-31T08:23:12.194Z,0.90
2023-01-31T08:25:40.713Z,1.00
2023-01-31T08:28:09.449Z,1.02
2023-01-31T08:30:41.366Z,0.90
2023-01-31T08:33:10.887Z,0.90
2023-01-31T08:35:39.430Z,0.73
2023-01-31T08:38:16.392Z,0.70
2023-01-31T08:40:46.878Z,0.90
2023-01-31T08:43:15.498Z,0.60
2023-01-31T08:45:44.013Z,0.63
2023-01-31T08:48:12.643Z,0.63
2023-01-31T08:50:41.642Z,0.60
2023-01-31T08:53:10.429Z,0.40
2023-01-31T08:55:38.956Z,0.50
2023-01-31T08:58:08.808Z,0.90
2023-01-31T09:00:37.273Z,0.88
2023-01-31T09:03:05.836Z,0.90
2023-01-31T09:05:34.562Z,0.90
2023-01-31T09:08:03.072Z,0.77
2023-01-31T09:10:31.571Z,1.10
2023-01-31T09:13:00.763Z,0.80
2023-01-31T09:15:31.199Z,1.08
2023-01-31T09:17:59.712Z,1.10
2023-01-31T09:20:28.769Z,0.90
2023-01-31T09:22:57.280Z,1.08
2023-01-31T09:25:42.400Z,0.98
2023-01-31T09:28:12.572Z,1.40
2023-01-31T09:30:42.621Z,1.10
2023-01-31T09:33:11.077Z,1.10
2023-01-31T09:35:39.496Z,1.30
2023-01-31T09:38:08.438Z,1.25
2023-01-31T09:40:40.638Z,1.30
2023-01-31T09:43:13.109Z,1.10
2023-01-31T09:45:45.277Z,1.30
2023-01-31T09:48:19.356Z,1.52
2023-01-31T09:53:22.550Z,1.30
2023-01-31T09:55:58.212Z,1.27
2023-01-31T09:58:36.916Z,1.20
2023-01-31T10:01:19.354Z,1.23
2023-01-31T10:04:23.318Z,0.90
2023-01-31T10:06:58.452Z,1.55
2023-01-31T10:09:34.803Z,1.30
2023-01-31T10:12:12.751Z,1.20
2023-01-31T10:14:47.791Z,1.05
2023-01-31T10:17:21.044Z,1.10
2023-01-31T10:19:56.416Z,1.20
2023-01-31T10:22:34.921Z,1.40
2023-01-31T10:25:17.502Z,1.40
2023-01-31T10:27:51.172Z,1.13
2023-01-31T10:30:23.287Z,1.38
2023-01-31T10:33:00.135Z,1.17
2023-01-31T10:35:32.056Z,1.30
2023-01-31T10:38:05.708Z,1.30
2023-01-31T10:40:36.778Z,1.42
2023-01-31T10:43:15.088Z,1.40
2023-01-31T10:45:43.560Z,1.33
2023-01-31T10:48:18.231Z,1.20
2023-01-31T10:50:59.412Z,1.50
2023-01-31T10:53:42.873Z,1.17
2023-01-31T10:56:18.042Z,1.17
2023-01-31T10:58:46.896Z,1.25
2023-01-31T11:01:15.461Z,1.25
2023-01-31T11:03:50.787Z,1.35
2023-01-31T11:06:19.982Z,1.40
2023-01-31T11:08:50.477Z,1.30
2023-01-31T11:11:21.284Z,1.35
2023-01-31T11:14:00.645Z,1.10
2023-01-31T11:16:31.871Z,1.08
2023-01-31T11:19:05.160Z,1.50
2023-01-31T11:21:37.984Z,1.38
2023-01-31T11:24:16.352Z,1.30
2023-01-31T11:26:52.924Z,1.42
2023-01-31T11:29:28.063Z,1.13
2023-01-31T11:31:58.121Z,1.33
2023-01-31T11:34:30.783Z,1.50
2023-01-31T11:37:06.459Z,1.30
2023-01-31T11:39:38.150Z,1.40
2023-01-31T11:42:08.880Z,1.60
2023-01-31T11:44:37.383Z,1.45
2023-01-31T11:47:12.701Z,1.40
2023-01-31T11:49:44.106Z,1.50
2023-01-31T11:52:14.967Z,1.55
2023-01-31T11:54:47.920Z,1.20
2023-01-31T11:57:22.208Z,1.25
2023-01-31T11:59:52.988Z,1.35
2023-01-31T12:02:28.910Z,1.67
2023-01-31T12:05:00.507Z,1.55
2023-01-31T12:07:33.659Z,1.50
2023-01-31T12:10:02.145Z,1.40
2023-01-31T12:12:34.987Z,1.38
2023-01-31T12:15:05.950Z,1.55
2023-01-31T12:17:44.393Z,1.40
2023-01-31T12:20:29.831Z,1.48
2023-01-31T12:23:11.024Z,1.40
2023-01-31T12:25:54.317Z,1.27
2023-01-31T12:28:36.831Z,1.42
2023-01-31T12:31:32.422Z,1.20
2023-01-31T12:34:47.151Z,1.30
2023-01-31T12:37:36.068Z,1.30
2023-01-31T12:40:25.668Z,1.67
2023-01-31T12:42:59.240Z,1.58
2023-01-31T12:45:51.379Z,1.23
2023-01-31T12:48:36.658Z,1.70
2023-01-31T12:51:17.632Z,1.10
2023-01-31T12:54:02.037Z,1.60
2023-01-31T12:56:51.213Z,1.23
2023-01-31T12:59:35.035Z,1.60
2023-01-31T13:02:28.599Z,1.40
2023-01-31T13:05:03.178Z,1.48
2023-01-31T13:07:37.109Z,1.20
2023-01-31T13:10:19.955Z,1.50
2023-01-31T13:12:49.468Z,1.40
2023-01-31T13:15:27.280Z,1.35
2023-01-31T13:18:04.203Z,1.65
2023-01-31T13:20:37.423Z,1.52
2023-01-31T13:23:11.101Z,1.27
2023-01-31T13:25:45.711Z,1.40
2023-01-31T13:28:20.101Z,1.17
2023-01-31T13:30:54.365Z,1.30
2023-01-31T13:33:33.383Z,1.20
2023-01-31T13:36:13.217Z,1.30
2023-01-31T13:38:44.804Z,1.60
2023-01-31T13:41:23.267Z,1.42
2023-01-31T13:43:51.776Z,1.33
2023-01-31T13:46:25.405Z,1.40
2023-01-31T13:48:58.213Z,1.00
2023-01-31T13:51:34.177Z,1.30
2023-01-31T13:54:08.424Z,1.40
2023-01-31T13:56:41.011Z,1.10
2023-01-31T13:59:11.472Z,1.20
2023-01-31T14:01:47.082Z,1.10
2023-01-31T14:04:40.547Z,1.42
2023-01-31T14:07:20.708Z,1.10
2023-01-31T14:10:28.518Z,1.40
2023-01-31T14:13:28.210Z,1.17
2023-01-31T14:15:58.825Z,1.10
2023-01-31T14:18:38.567Z,1.15
2023-01-31T14:21:57.786Z,0.90
2023-01-31T14:24:57.305Z,1.35
2023-01-31T14:27:29.518Z,1.10
2023-01-31T14:30:10.344Z,1.20
2023-01-31T14:32:43.177Z,0.93
2023-01-31T14:35:35.883Z,1.50
2023-01-31T14:38:14.433Z,1.15
2023-01-31T14:40:53.264Z,1.20
2023-01-31T14:43:37.249Z,1.33
2023-01-31T14:46:22.185Z,1.25
2023-01-31T14:49:16.573Z,1.50
2023-01-31T14:51:59.753Z,1.20
2023-01-31T14:54:44.583Z,1.13
2023-01-31T14:57:18.637Z,1.00
2023-01-31T15:02:47.214Z,1.42
2023-01-31T15:05:18.632Z,1.25
2023-01-31T15:08:06.493Z,1.20
2023-01-31T15:10:54.836Z,1.20
2023-01-31T15:13:48.465Z,1.70
2023-01-31T15:16:26.309Z,1.40
2023-01-31T15:19:02.621Z,1.88
2023-01-31T15:21:33.342Z,1.42
2023-01-31T15:24:02.704Z,1.30
2023-01-31T15:26:35.524Z,1.20
2023-01-31T15:29:05.612Z,1.27
2023-01-31T15:31:41.063Z,1.25
2023-01-31T15:34:19.970Z,1.60
2023-01-31T15:36:59.503Z,1.00
2023-01-31T15:39:33.690Z,1.25
2023-01-31T15:42:22.768Z,1.02
2023-01-31T15:44:51.341Z,1.77
2023-01-31T15:47:22.455Z,1.25
2023-01-31T15:49:52.578Z,1.10
2023-01-31T15:52:22.428Z,1.10
2023-01-31T15:54:58.541Z,1.20
2023-01-31T15:57:33.696Z,1.23
2023-01-31T16:00:02.571Z,1.25
2023-01-31T16:02:37.918Z,1.20
2023-01-31T16:05:09.021Z,1.40
2023-01-31T16:07:37.573Z,1.23
2023-01-31T16:10:06.903Z,1.13
2023-01-31T16:12:41.552Z,1.13
2023-01-31T16:15:19.953Z,1.25
2023-01-31T16:17:49.196Z,1.30
2023-01-31T16:20:39.391Z,1.15
2023-01-31T16:23:31.885Z,1.17
2023-01-31T16:26:07.568Z,1.20
2023-01-31T16:28:41.964Z,1.10
2023-01-31T16:31:13.147Z,1.02
2023-01-31T16:33:49.603Z,1.25
2023-01-31T16:36:26.460Z,1.17
2023-01-31T16:39:01.572Z,1.15
2023-01-31T16:41:46.744Z,1.25
2023-01-31T16:44:18.539Z,1.00
2023-01-31T16:46:48.891Z,1.10
2023-01-31T16:49:23.664Z,1.10
2023-01-31T16:51:56.972Z,1.15
2023-01-31T16:54:26.909Z,1.10
2023-01-31T16:57:21.260Z,1.40
2023-01-31T16:59:51.317Z,1.17
2023-01-31T17:02:27.228Z,1.10
2023-01-31T17:04:58.646Z,1.10
2023-01-31T17:07:31.653Z,1.15
2023-01-31T17:10:02.777Z,1.40
2023-01-31T17:12:33.405Z,1.40
2023-01-31T17:15:03.890Z,1.60
2023-01-31T17:17:37.332Z,1.58
2023-01-31T17:20:06.542Z,1.70
2023-01-31T17:22:36.298Z,1.67
2023-01-31T17:25:15.600Z,1.80
2023-01-31T17:27:44.535Z,2.08
2023-01-31T17:30:14.884Z,2.00
2023-01-31T17:32:44.104Z,1.90
2023-01-31T17:35:19.347Z,2.40
2023-01-31T17:37:49.521Z,2.58
2023-01-31T17:40:18.640Z,2.70
2023-01-31T17:42:47.236Z,2.90
2023-01-31T17:45:17.543Z,3.40
2023-01-31T17:47:46.793Z,3.13
2023-01-31T17:50:17.091Z,2.63
2023-01-31T17:52:45.943Z,3.50
2023-01-31T17:55:16.846Z,3.40
2023-01-31T17:57:46.350Z,3.50
2023-01-31T18:00:17.206Z,3.70
2023-01-31T18:02:46.033Z,3.80
2023-01-31T18:05:24.494Z,3.92
2023-01-31T18:07:59.063Z,4.13
2023-01-31T18:10:28.917Z,4.50
2023-01-31T18:12:57.412Z,4.80
2023-01-31T18:15:25.903Z,4.55
2023-01-31T18:17:54.509Z,4.35
2023-01-31T18:20:23.067Z,4.50
2023-01-31T18:22:51.747Z,5.00
2023-01-31T18:25:20.798Z,4.50
2023-01-31T18:27:50.707Z,5.07
2023-01-31T18:30:19.864Z,4.38
2023-01-31T18:32:48.328Z,4.63
2023-01-31T18:35:17.023Z,4.90
2023-01-31T18:37:45.532Z,5.00
2023-01-31T18:40:14.684Z,5.00
2023-01-31T18:42:43.109Z,4.70
2023-01-31T18:45:13.463Z,5.03
2023-01-31T18:47:41.925Z,4.80
2023-01-31T18:50:11.386Z,5.22
2023-01-31T18:52:43.702Z,5.32
2023-01-31T18:55:12.195Z,5.18
2023-01-31T18:57:40.715Z,4.97
2023-01-31T19:00:10.681Z,5.82
2023-01-31T19:02:40.995Z,5.47
2023-01-31T19:05:10.056Z,4.80
2023-01-31T19:07:38.833Z,6.30
2023-01-31T19:10:08.150Z,4.88
2023-01-31T19:12:39.039Z,4.57
2023-01-31T19:15:08.586Z,4.70
2023-01-31T19:17:37.554Z,4.85
2023-01-31T19:20:08.684Z,4.85
2023-01-31T19:22:37.353Z,5.30
2023-01-31T19:25:09.090Z,4.50
2023-01-31T19:27:37.937Z,4.88
2023-01-31T19:30:07.722Z,4.93
2023-01-31T19:32:36.313Z,4.63
2023-01-31T19:35:04.948Z,4.47
2023-01-31T19:37:34.853Z,4.45
2023-01-31T19:40:04.842Z,5.10
2023-01-31T19:42:33.354Z,4.22
2023-01-31T19:45:01.863Z,4.25
2023-01-31T19:47:30.699Z,4.47
2023-01-31T19:49:59.175Z,4.40
2023-01-31T19:52:27.698Z,4.32
2023-01-31T19:54:57.571Z,4.53
2023-01-31T19:57:26.136Z,4.07
2023-01-31T19:59:54.615Z,3.83
2023-01-31T20:02:23.229Z,3.85
2023-01-31T20:04:52.876Z,3.95
2023-01-31T20:07:21.400Z,4.18
2023-01-31T20:09:49.868Z,4.25
2023-01-31T20:12:19.624Z,4.28
2023-01-31T20:14:48.563Z,4.15
2023-01-31T20:17:17.017Z,4.03
2023-01-31T20:19:45.758Z,3.67
2023-01-31T20:22:15.538Z,3.95
2023-01-31T20:24:44.011Z,4.07
2023-01-31T20:27:12.582Z,4.15
2023-01-31T20:29:42.486Z,3.90
2023-01-31T20:32:13.363Z,4.05
2023-01-31T20:34:41.833Z,3.83
2023-01-31T20:37:10.458Z,3.70
2023-01-31T20:39:39.038Z,3.47
2023-01-31T20:42:07.530Z,3.53
2023-01-31T20:44:35.960Z,3.30
2023-01-31T20:47:06.185Z,3.50
2023-01-31T20:49:34.749Z,3.20
2023-01-31T20:52:03.208Z,3.03
2023-01-31T20:54:32.513Z,3.22
2023-01-31T20:57:01.293Z,3.53
2023-01-31T20:59:29.794Z,3.20
2023-01-31T21:01:58.238Z,3.40
2023-01-31T21:04:28.060Z,3.30
2023-01-31T21:06:56.665Z,2.97
2023-01-31T21:09:25.226Z,3.22
2023-01-31T21:11:53.760Z,3.42
2023-01-31T21:14:22.395Z,3.33
2023-01-31T21:16:50.892Z,2.85
2023-01-31T21:19:19.553Z,3.15
2023-01-31T21:21:49.380Z,2.80
2023-01-31T21:24:17.948Z,2.85
2023-01-31T21:26:46.442Z,2.80
2023-01-31T21:29:14.937Z,2.85
2023-01-31T21:31:43.528Z,2.70
2023-01-31T21:34:12.043Z,2.40
2023-01-31T21:36:40.650Z,2.90
2023-01-31T21:39:12.646Z,2.70
2023-01-31T21:41:58.520Z,2.63
2023-01-31T21:44:26.967Z,2.50
2023-01-31T21:46:55.514Z,2.53
2023-01-31T21:49:24.000Z,2.75
2023-01-31T21:51:52.435Z,2.55
2023-01-31T21:54:22.192Z,2.50
2023-01-31T21:56:50.731Z,2.45
2023-01-31T21:59:19.199Z,2.60
2023-01-31T22:01:47.781Z,2.70
2023-01-31T22:04:20.579Z,2.33
2023-01-31T22:06:49.453Z,2.50
2023-01-31T22:09:18.918Z,2.53
2023-01-31T22:11:49.951Z,2.22
2023-01-31T22:14:18.522Z,2.20
2023-01-31T22:16:47.236Z,2.10
2023-01-31T22:19:15.731Z,2.13
2023-01-31T22:21:45.152Z,2.20
2023-01-31T22:24:14.126Z,2.10
2023-01-31T22:26:44.531Z,2.28
2023-01-31T22:29:15.621Z,2.30
2023-01-31T22:31:45.285Z,1.80
2023-01-31T22:34:16.138Z,2.20
2023-01-31T22:36:45.017Z,1.90
2023-01-31T22:39:15.942Z,2.03
2023-01-31T22:41:45.056Z,2.05
2023-01-31T22:44:14.997Z,1.80
2023-01-31T22:46:44.270Z,1.95
2023-01-31T22:49:12.661Z,1.83
2023-01-31T22:51:41.112Z,1.60
2023-01-31T22:54:09.578Z,1.63
2023-01-31T22:56:38.083Z,1.73
2023-01-31T22:59:08.232Z,1.70
2023-01-31T23:01:39.441Z,1.65
2023-01-31T23:04:09.686Z,1.75
2023-01-31T23:06:39.202Z,1.80
2023-01-31T23:09:07.765Z,1.80
2023-01-31T23:11:36.375Z,1.85
2023-01-31T23:14:05.122Z,1.80
2023-01-31T23:16:51.177Z,1.63
2023-01-31T23:19:21.018Z,1.67
2023-01-31T23:21:49.806Z,1.65
2023-01-31T23:24:19.031Z,1.70
2023-01-31T23:26:47.867Z,1.63
2023-01-31T23:29:16.355Z,1.80
2023-01-31T23:31:46.246Z,1.70
2023-01-31T23:34:14.761Z,1.80
2023-01-31T23:36:44.542Z,1.50
2023-01-31T23:39:13.251Z,1.63
2023-01-31T23:41:41.716Z,1.52
2023-01-31T23:44:10.231Z,1.77
2023-01-31T23:46:38.888Z,1.60
2023-01-31T23:49:07.722Z,1.88
2023-01-31T23:51:36.236Z,1.50
2023-01-31T23:54:06.184Z,1.40
2023-01-31T23:56:34.698Z,1.50
2023-01-31T23:59:03.685Z,1.70
